Time;durP1;ratioP1;P1;durP2;ratioP2;P2;SDS_P1;SDS_P2;PMS_P1;PMS_P2;Temp;Humidity;BMP_temperature;BMP_pressure;BME280_temperature;BME280_humidity;BME280_pressure;Samples;Min_cycle;Max_cycle;Signal;HPM_P1;HPM_P2
2022/06/29 00:01:38;;;;;;;19.13;17.37;;;;;;;17.05;100.00;96246.72;5030667;28;101948;-59
2022/06/29 00:04:07;;;;;;;19.17;17.37;;;;;;;16.98;100.00;96241.72;5028785;28;102653;-60
2022/06/29 00:06:34;;;;;;;18.23;16.53;;;;;;;17.04;100.00;96245.09;5029689;27;102854;-59
2022/06/29 00:09:01;;;;;;;21.00;19.03;;;;;;;17.05;100.00;96226.00;5032390;28;102037;-59
2022/06/29 00:11:29;;;;;;;21.53;19.37;;;;;;;17.06;100.00;96237.56;5028291;28;104124;-59
2022/06/29 00:13:56;;;;;;;21.60;19.60;;;;;;;17.06;100.00;96241.03;5030277;28;101868;-59
2022/06/29 00:16:23;;;;;;;21.77;19.77;;;;;;;17.06;100.00;96245.63;5029003;28;105377;-59
2022/06/29 00:18:51;;;;;;;21.40;19.40;;;;;;;17.11;100.00;96253.59;5028346;28;105715;-59
2022/06/29 00:21:19;;;;;;;22.17;20.03;;;;;;;17.12;100.00;96261.34;5030068;28;101787;-59
2022/06/29 00:23:46;;;;;;;21.53;19.53;;;;;;;17.16;100.00;96251.63;5030256;28;102618;-59
2022/06/29 00:26:14;;;;;;;23.33;21.10;;;;;;;17.20;100.00;96249.94;5028300;28;104132;-59
2022/06/29 00:28:41;;;;;;;24.60;22.20;;;;;;;17.26;100.00;96247.94;5033720;28;101895;-59
2022/06/29 00:31:08;;;;;;;24.30;22.03;;;;;;;17.31;100.00;96243.31;5029344;28;102725;-59
2022/06/29 00:33:35;;;;;;;23.43;21.07;;;;;;;17.35;100.00;96246.19;5028513;28;101950;-59
2022/06/29 00:36:02;;;;;;;21.67;19.60;;;;;;;17.39;100.00;96252.59;5029921;28;102364;-59
2022/06/29 00:38:31;;;;;;;21.97;19.87;;;;;;;17.40;100.00;96244.25;5029613;27;102660;-59
2022/06/29 00:40:59;;;;;;;22.57;20.47;;;;;;;17.41;100.00;96247.72;5028086;28;101986;-59
2022/06/29 00:43:26;;;;;;;23.53;21.23;;;;;;;17.39;100.00;96244.53;5028585;28;105295;-59
2022/06/29 00:45:53;;;;;;;20.80;18.83;;;;;;;17.44;100.00;96233.69;5027965;28;102917;-59
2022/06/29 00:48:20;;;;;;;18.87;17.17;;;;;;;17.46;100.00;96224.25;5029875;27;101941;-59
2022/06/29 00:50:49;;;;;;;17.33;15.73;;;;;;;17.53;100.00;96223.84;5030513;28;105664;-59
2022/06/29 00:53:18;;;;;;;15.03;12.50;;;;;;;17.51;100.00;96220.66;5029638;28;101814;-59
2022/06/29 00:55:50;;;;;;;13.00;11.70;;;;;;;17.53;100.00;96213.88;5029379;28;102966;-59
2022/06/29 00:58:21;;;;;;;14.73;13.30;;;;;;;17.62;100.00;96205.91;5029451;28;102668;-59
2022/06/29 01:00:49;;;;;;;13.90;12.60;;;;;;;17.65;100.00;96199.97;5028344;28;101865;-59
2022/06/29 01:03:16;;;;;;;14.30;12.90;;;;;;;17.63;100.00;96192.19;5029576;28;102877;-59
2022/06/29 01:05:43;;;;;;;13.60;12.30;;;;;;;17.65;100.00;96183.81;5028881;28;104202;-59
2022/06/29 01:08:12;;;;;;;13.30;12.10;;;;;;;17.63;100.00;96192.19;5029884;27;101716;-59
2022/06/29 01:10:40;;;;;;;14.53;13.13;;;;;;;17.63;100.00;96183.31;5029266;28;102817;-59
2022/06/29 01:13:11;;;;;;;14.27;12.90;;;;;;;17.65;100.00;96167.69;5030853;28;105392;-59
2022/06/29 01:15:38;;;;;;;12.73;11.37;;;;;;;17.63;100.00;96167.16;5029846;27;102323;-59
2022/06/29 01:18:05;;;;;;;12.40;10.50;;;;;;;17.64;100.00;96199.16;5029063;28;102631;-59
2022/06/29 01:20:33;;;;;;;12.83;10.43;;;;;;;17.54;100.00;96220.06;5029277;28;101841;-59
2022/06/29 01:23:02;;;;;;;10.63;9.63;;;;;;;17.48;100.00;96216.66;5029235;28;102969;-59
2022/06/29 01:25:29;;;;;;;10.97;9.77;;;;;;;17.48;100.00;96210.47;5029284;28;103168;-59
2022/06/29 01:27:56;;;;;;;10.77;9.77;;;;;;;17.49;100.00;96204.03;5029044;28;101846;-59
2022/06/29 01:30:23;;;;;;;10.97;9.87;;;;;;;17.52;100.00;96184.59;5030005;27;102412;-59
2022/06/29 01:32:50;;;;;;;11.17;10.27;;;;;;;17.53;100.00;96175.44;5029514;28;102707;-59
2022/06/29 01:35:22;;;;;;;12.07;10.87;;;;;;;17.53;100.00;96186.19;5032426;27;102209;-59
2022/06/29 01:37:49;;;;;;;12.37;11.17;;;;;;;17.49;100.00;96206.72;5028871;27;102495;-59
2022/06/29 01:40:18;;;;;;;12.20;11.10;;;;;;;17.49;100.00;96190.59;5029181;27;101953;-59
2022/06/29 01:42:45;;;;;;;13.13;11.83;;;;;;;17.51;100.00;96177.63;5029059;27;101970;-59
2022/06/29 01:45:12;;;;;;;11.50;10.60;;;;;;;17.52;100.00;96171.97;5028549;28;102109;-59
2022/06/29 01:47:39;;;;;;;12.47;11.20;;;;;;;17.51;100.00;96158.81;5029026;28;101862;-59
2022/06/29 01:50:06;;;;;;;13.83;12.40;;;;;;;17.51;100.00;96150.75;5028442;28;102363;-59
2022/06/29 01:52:34;;;;;;;13.17;11.83;;;;;;;17.51;100.00;96156.13;5028422;28;102677;-59
2022/06/29 01:55:01;;;;;;;12.37;11.17;;;;;;;17.48;100.00;96178.22;5027341;28;101922;-60
2022/06/29 01:57:30;;;;;;;11.97;10.87;;;;;;;17.35;100.00;96179.00;5030356;28;105568;-59
2022/06/29 01:59:57;;;;;;;13.50;12.30;;;;;;;17.32;100.00;96182.25;5030099;27;101924;-59
2022/06/29 02:02:24;;;;;;;12.57;11.47;;;;;;;17.35;100.00;96171.72;5030669;28;105414;-59
2022/06/29 02:04:52;;;;;;;13.93;12.53;;;;;;;17.34;100.00;96164.75;5031626;27;102598;-59
2022/06/29 02:07:19;;;;;;;12.60;11.50;;;;;;;17.43;100.00;96154.16;5030986;28;101941;-59
2022/06/29 02:09:46;;;;;;;13.33;12.07;;;;;;;17.48;100.00;96154.03;5030850;28;105104;-59
2022/06/29 02:12:13;;;;;;;12.73;11.40;;;;;;;17.51;100.00;96161.50;5029971;28;106113;-59
2022/06/29 02:14:42;;;;;;;11.50;10.40;;;;;;;17.53;100.00;96162.00;5030784;28;101827;-59
2022/06/29 02:17:09;;;;;;;11.90;10.80;;;;;;;17.54;100.00;96159.00;5030785;28;105145;-59
2022/06/29 02:19:36;;;;;;;13.33;12.07;;;;;;;17.55;100.00;96146.38;5033555;28;105497;-59
2022/06/29 02:22:04;;;;;;;14.30;12.80;;;;;;;17.46;100.00;96140.09;5030567;28;105318;-59
2022/06/29 02:24:32;;;;;;;15.73;13.23;;;;;;;17.49;100.00;96148.34;5031630;28;102573;-59
2022/06/29 02:26:59;;;;;;;14.10;12.33;;;;;;;17.38;100.00;96146.97;5032101;28;101832;-59
2022/06/29 02:29:26;;;;;;;13.90;12.07;;;;;;;17.39;100.00;96169.28;5030584;28;104084;-59
2022/06/29 02:34:46;;;;;;;15.47;13.90;;;;;;;17.41;100.00;96178.63;5030449;28;101885;-59
2022/06/29 02:37:14;;;;;;;18.13;16.23;;;;;;;17.35;100.00;96187.06;5030531;28;105160;-59
2022/06/29 02:39:42;;;;;;;17.03;15.43;;;;;;;17.41;100.00;96196.66;5033587;28;106163;-59
2022/06/29 02:42:12;;;;;;;17.13;14.10;;;;;;;17.40;100.00;96203.13;5030450;28;106258;-59
2022/06/29 02:44:40;;;;;;;17.63;13.77;;;;;;;17.38;100.00;96206.09;5029727;28;106070;-59
2022/06/29 02:47:10;;;;;;;14.57;13.20;;;;;;;17.43;100.00;96205.22;5029997;28;101869;-59
2022/06/29 02:49:37;;;;;;;14.97;13.47;;;;;;;17.41;100.00;96202.84;5031579;28;103342;-59
2022/06/29 02:52:05;;;;;;;15.07;13.63;;;;;;;17.46;100.00;96196.56;5029634;28;105554;-59
2022/06/29 02:54:32;;;;;;;14.87;13.47;;;;;;;17.47;100.00;96200.81;5030127;28;101883;-59
2022/06/29 02:56:59;;;;;;;13.70;12.47;;;;;;;17.37;100.00;96192.91;5029350;28;105971;-59
2022/06/29 02:59:26;;;;;;;13.60;12.27;;;;;;;17.43;100.00;96187.19;5029433;28;105298;-59
2022/06/29 03:01:54;;;;;;;12.50;11.30;;;;;;;17.47;100.00;96195.44;5033475;28;101954;-59
2022/06/29 03:04:22;;;;;;;11.50;10.40;;;;;;;17.50;100.00;96202.94;5030735;28;102912;-59
2022/06/29 03:06:49;;;;;;;11.83;10.60;;;;;;;17.53;100.00;96195.06;5031266;28;102543;-59
2022/06/29 03:09:16;;;;;;;11.13;10.10;;;;;;;17.56;100.00;96193.66;5030095;28;105399;-59
2022/06/29 03:11:44;;;;;;;12.70;11.40;;;;;;;17.47;100.00;96198.13;5029495;27;102742;-59
2022/06/29 03:14:11;;;;;;;11.50;10.50;;;;;;;17.39;100.00;96202.31;5031117;28;101854;-59
2022/06/29 03:16:38;;;;;;;11.57;10.37;;;;;;;17.45;100.00;96211.09;5030999;28;101757;-59
2022/06/29 03:19:05;;;;;;;12.53;10.37;;;;;;;17.40;100.00;96211.19;5029316;28;105784;-59
2022/06/29 03:21:34;;;;;;;11.90;10.80;;;;;;;17.42;100.00;96209.00;5031109;28;101907;-59
2022/06/29 03:24:03;;;;;;;12.33;11.13;;;;;;;17.45;100.00;96206.50;5032529;28;105791;-59
2022/06/29 03:26:31;;;;;;;11.77;10.73;;;;;;;17.46;100.00;96210.81;5029639;28;101951;-59
2022/06/29 03:28:58;;;;;;;11.83;10.70;;;;;;;17.44;100.00;96217.56;5029630;28;103676;-59
2022/06/29 03:31:25;;;;;;;13.80;12.40;;;;;;;17.41;100.00;96216.28;5030635;27;102828;-59
2022/06/29 03:33:52;;;;;;;15.50;13.90;;;;;;;17.40;100.00;96209.31;5031023;28;101817;-59
2022/06/29 03:36:20;;;;;;;14.20;12.90;;;;;;;17.39;100.00;96220.34;5029279;28;104190;-59
2022/06/29 03:38:48;;;;;;;13.90;12.63;;;;;;;17.34;100.00;96226.56;5030710;28;102555;-59
2022/06/29 03:41:16;;;;;;;13.40;12.10;;;;;;;17.30;100.00;96228.28;5029685;28;101944;-59
2022/06/29 03:43:42;;;;;;;12.87;11.53;;;;;;;17.25;100.00;96233.72;5030898;28;102944;-59
2022/06/29 03:46:24;;;;;;;13.57;12.10;;;;;;;17.25;100.00;96249.06;5033967;28;103347;-59
2022/06/29 03:48:54;;;;;;;13.17;11.53;;;;;;;17.22;100.00;96249.66;5029636;28;105328;-59
2022/06/29 03:51:21;;;;;;;11.13;10.27;;;;;;;17.22;100.00;96249.66;5028770;28;103972;-59
2022/06/29 03:53:51;;;;;;;11.33;10.33;;;;;;;17.17;100.00;96249.75;5030874;28;101865;-59
2022/06/29 03:56:18;;;;;;;13.10;11.77;;;;;;;17.12;100.00;96239.06;5029069;27;102307;-59
2022/06/29 03:58:46;;;;;;;12.87;11.63;;;;;;;17.12;100.00;96231.00;5028986;28;105465;-59
2022/06/29 04:01:13;;;;;;;13.43;12.10;;;;;;;17.10;100.00;96230.50;5030820;28;101885;-59
2022/06/29 04:03:40;;;;;;;13.60;12.47;;;;;;;17.10;100.00;96243.94;5030904;27;102399;-59
2022/06/29 04:06:13;;;;;;;15.37;13.80;;;;;;;17.13;100.00;96249.53;5029954;28;104188;-62
2022/06/29 04:08:40;;;;;;;15.57;13.97;;;;;;;17.10;100.00;96242.06;5034154;27;101821;-61
2022/06/29 04:13:49;;;;;;;20.27;18.27;;;;;;;17.10;100.00;96236.69;5030316;28;101745;-61
2022/06/29 04:16:19;;;;;;;21.00;18.90;;;;;;;17.17;100.00;96244.38;5029169;28;105300;-61
2022/06/29 04:18:47;;;;;;;22.63;20.37;;;;;;;17.24;100.00;96247.47;5029941;27;102777;-61
2022/06/29 04:21:15;;;;;;;22.10;19.83;;;;;;;17.31;100.00;96243.31;5030181;27;102174;-61
2022/06/29 04:23:42;;;;;;;20.77;18.53;;;;;;;17.36;100.00;96235.16;5028982;28;106073;-61
2022/06/29 04:26:11;;;;;;;18.37;16.47;;;;;;;17.35;100.00;96235.44;5028094;28;105411;-61
2022/06/29 04:28:38;;;;;;;17.33;15.63;;;;;;;17.43;100.00;96219.44;5030334;27;101916;-61
2022/06/29 04:31:05;;;;;;;14.40;13.00;;;;;;;17.44;100.00;96212.19;5032985;28;102385;-61
2022/06/29 04:33:32;;;;;;;13.43;12.03;;;;;;;17.52;100.00;96196.16;5028465;28;101991;-61
2022/06/29 04:35:59;;;;;;;12.70;9.67;;;;;;;17.54;100.00;96177.06;5028110;28;105877;-61
2022/06/29 04:38:26;;;;;;;10.40;9.40;;;;;;;17.61;100.00;96167.47;5028983;28;103827;-61
2022/06/29 04:40:54;;;;;;;13.13;8.67;;;;;;;17.63;100.00;96161.78;5030975;28;101786;-61
2022/06/29 04:43:22;;;;;;;8.70;7.90;;;;;;;17.70;100.00;96146.03;5029395;28;106724;-61
2022/06/29 04:48:33;;;;;;;10.20;9.07;;;;;;;17.65;100.00;96100.47;5030962;27;101686;-61
2022/06/29 04:51:00;;;;;;;9.57;8.67;;;;;;;17.66;100.00;96100.13;5031729;28;104054;-61
2022/06/29 04:53:28;;;;;;;10.63;9.10;;;;;;;17.59;100.00;96120.47;5029347;28;102008;-61
2022/06/29 04:55:55;;;;;;;10.03;7.93;;;;;;;17.50;100.00;96138.41;5030206;28;102325;-61
2022/06/29 04:58:23;;;;;;;10.43;8.10;;;;;;;17.41;100.00;96164.38;5028598;28;106369;-61
2022/06/29 05:00:52;;;;;;;15.43;8.47;;;;;;;17.43;100.00;96175.66;5030385;28;101718;-61
2022/06/29 05:03:19;;;;;;;10.77;8.67;;;;;;;17.39;100.00;96185.41;5030498;28;103012;-61
2022/06/29 05:05:47;;;;;;;9.47;8.57;;;;;;;17.41;100.00;96183.22;5028432;28;105195;-61
2022/06/29 05:08:15;;;;;;;11.50;10.50;;;;;;;17.44;100.00;96183.41;5030620;28;101697;-61
2022/06/29 05:10:42;;;;;;;13.90;12.50;;;;;;;17.45;100.00;96168.84;5027832;28;105831;-61
2022/06/29 05:13:10;;;;;;;16.13;14.63;;;;;;;17.48;100.00;96167.47;5030816;28;103701;-61
2022/06/29 05:15:39;;;;;;;17.40;15.60;;;;;;;17.52;100.00;96163.91;5027972;28;105182;-61
2022/06/29 05:18:07;;;;;;;18.43;15.77;;;;;;;17.67;100.00;96160.91;5028846;28;102941;-61
2022/06/29 05:20:35;;;;;;;17.73;15.93;;;;;;;17.77;100.00;96151.84;5029269;28;101768;-61
2022/06/29 05:23:04;;;;;;;17.23;15.23;;;;;;;17.77;100.00;96158.00;5027996;28;105369;-61
2022/06/29 05:25:31;;;;;;;18.00;15.87;;;;;;;17.85;100.00;96159.19;5028481;28;104208;-61
2022/06/29 05:27:59;;;;;;;17.47;15.77;;;;;;;17.97;100.00;96164.84;5029152;28;101702;-61
2022/06/29 05:30:26;;;;;;;17.37;15.67;;;;;;;18.08;100.00;96167.00;5027729;28;104167;-61
2022/06/29 05:32:55;;;;;;;16.83;15.13;;;;;;;18.11;100.00;96169.13;5026846;28;105805;-61
2022/06/29 05:35:22;;;;;;;17.53;15.73;;;;;;;18.15;100.00;96172.78;5032020;28;101814;-61
2022/06/29 05:37:49;;;;;;;15.83;14.33;;;;;;;18.18;100.00;96171.38;5027283;28;106349;-61
2022/06/29 05:40:16;;;;;;;18.47;13.83;;;;;;;18.16;100.00;96178.97;5028777;28;101731;-61
2022/06/29 05:42:43;;;;;;;14.73;13.40;;;;;;;18.12;100.00;96184.16;5028995;27;102277;-61
2022/06/29 05:45:11;;;;;;;14.03;12.83;;;;;;;18.20;100.00;96182.66;5028279;28;102783;-61
2022/06/29 05:47:38;;;;;;;12.50;11.40;;;;;;;18.12;100.00;96181.47;5029236;27;101730;-61
2022/06/29 05:50:10;;;;;;;12.67;11.33;;;;;;;18.34;100.00;96169.97;5027449;28;103820;-61
2022/06/29 05:52:37;;;;;;;12.17;11.00;;;;;;;18.29;100.00;96168.16;5026908;28;106479;-61
2022/06/29 05:55:04;;;;;;;12.70;10.93;;;;;;;18.32;100.00;96172.16;5027453;28;102188;-61
2022/06/29 05:57:33;;;;;;;12.13;10.60;;;;;;;18.47;100.00;96188.75;5030263;28;105022;-61
2022/06/29 06:00:01;;;;;;;11.13;10.13;;;;;;;18.65;100.00;96208.56;5028581;28;102069;-64
2022/06/29 06:02:38;;;;;;;12.53;11.30;;;;;;;18.66;100.00;96229.00;5025805;27;102076;-61
2022/06/29 06:05:09;;;;;;;11.50;10.30;;;;;;;18.70;100.00;96240.78;5010276;28;103904;-60
2022/06/29 06:07:36;;;;;;;11.57;10.57;;;;;;;18.69;100.00;96247.25;5028792;28;101790;-61
2022/06/29 06:10:04;;;;;;;10.53;9.60;;;;;;;18.61;100.00;96259.56;5028646;28;102802;-61
2022/06/29 06:12:32;;;;;;;10.60;9.50;;;;;;;18.59;100.00;96258.25;5027448;28;106170;-61
2022/06/29 06:15:01;;;;;;;10.07;9.10;;;;;;;18.75;100.00;96270.28;5028376;28;102124;-60
2022/06/29 06:17:28;;;;;;;9.77;8.87;;;;;;;18.78;100.00;96269.66;5029888;27;102423;-61
2022/06/29 06:19:56;;;;;;;8.90;8.10;;;;;;;18.71;100.00;96259.31;5032005;27;102595;-61
2022/06/29 06:22:25;;;;;;;9.93;8.87;;;;;;;18.71;100.00;96251.25;5028282;28;105324;-61
2022/06/29 06:24:52;;;;;;;8.70;7.80;;;;;;;18.73;100.00;96242.84;5029014;28;102631;-61
2022/06/29 06:27:20;;;;;;;8.00;7.23;;;;;;;18.76;100.00;96242.25;5027804;28;102261;-61
2022/06/29 06:29:47;;;;;;;6.93;5.97;;;;;;;18.76;100.00;96244.94;5029359;28;104006;-61
2022/06/29 06:32:15;;;;;;;7.03;5.60;;;;;;;18.70;100.00;96238.06;5028820;28;102581;-60
2022/06/29 06:34:42;;;;;;;8.20;6.27;;;;;;;18.75;100.00;96243.34;5029393;28;101856;-61
2022/06/29 06:37:09;;;;;;;8.03;6.20;;;;;;;18.77;100.00;96236.56;5029338;28;103008;-61
2022/06/29 06:39:38;;;;;;;6.23;5.50;;;;;;;18.83;100.00;96238.03;5027552;28;105825;-61
2022/06/29 06:42:04;;;;;;;9.37;4.90;;;;;;;18.85;100.00;96232.34;5031251;28;101800;-61
2022/06/29 06:44:32;;;;;;;6.40;5.50;;;;;;;19.00;100.00;96226.56;5029064;27;102515;-61
2022/06/29 06:47:00;;;;;;;7.13;5.60;;;;;;;19.08;100.00;96223.91;5032726;28;101923;-61
2022/06/29 06:49:27;;;;;;;5.73;5.10;;;;;;;19.14;100.00;96219.97;5031356;28;105487;-61
2022/06/29 06:51:54;;;;;;;5.50;5.00;;;;;;;19.23;100.00;96215.47;5031721;28;102696;-61
2022/06/29 06:54:21;;;;;;;6.70;5.13;;;;;;;19.30;100.00;96209.66;5031227;28;102439;-61
2022/06/29 06:56:50;;;;;;;10.03;6.67;;;;;;;19.40;100.00;96212.88;5032372;28;102584;-61
2022/06/29 06:59:17;;;;;;;6.70;5.63;;;;;;;19.63;100.00;96217.09;5031958;28;102752;-61
2022/06/29 07:01:44;;;;;;;6.67;5.93;;;;;;;19.79;100.00;96212.09;5035727;27;101835;-61
2022/06/29 07:04:11;;;;;;;5.90;5.30;;;;;;;19.72;100.00;96209.06;5030387;28;105483;-61
2022/06/29 07:06:39;;;;;;;6.30;5.80;;;;;;;19.79;100.00;96204.78;5032391;28;101830;-64
2022/06/29 07:09:06;;;;;;;8.47;6.63;;;;;;;19.82;100.00;96200.66;5032496;28;102544;-63
2022/06/29 07:11:33;;;;;;;8.00;7.17;;;;;;;19.97;100.00;96202.94;5031503;28;102733;-63
2022/06/29 07:14:02;;;;;;;7.00;5.50;;;;;;;20.08;100.00;96210.47;5032230;28;102006;-63
2022/06/29 07:16:30;;;;;;;6.30;5.80;;;;;;;20.36;100.00;96221.78;5032247;28;102361;-63
2022/06/29 07:18:58;;;;;;;8.03;6.80;;;;;;;20.59;100.00;96236.78;5031524;28;103114;-63
2022/06/29 07:21:25;;;;;;;6.57;5.80;;;;;;;20.70;100.00;96244.22;5014002;28;102027;-63
2022/06/29 07:23:53;;;;;;;6.80;6.20;;;;;;;20.64;100.00;96244.69;5033261;28;103721;-63
2022/06/29 07:26:20;;;;;;;6.10;5.30;;;;;;;20.53;100.00;96249.63;5032151;28;101878;-63
2022/06/29 07:28:47;;;;;;;6.47;5.87;;;;;;;20.71;100.00;96250.44;5032244;27;102562;-63
2022/06/29 07:31:15;;;;;;;5.33;4.93;;;;;;;20.76;100.00;96259.19;5031591;28;102795;-63
2022/06/29 07:33:43;;;;;;;8.10;6.17;;;;;;;20.78;100.00;96254.25;5030379;28;101921;-63
2022/06/29 07:36:10;;;;;;;7.30;5.50;;;;;;;20.74;100.00;96253.31;5031784;28;102548;-63
2022/06/29 07:38:37;;;;;;;7.27;5.60;;;;;;;20.84;100.00;96252.19;5029855;28;105709;-63
2022/06/29 07:41:04;;;;;;;5.47;4.93;;;;;;;20.86;100.00;96244.53;5030336;28;101965;-64
2022/06/29 07:43:32;;;;;;;5.37;4.87;;;;;;;20.86;100.00;96231.03;5031800;28;102866;-64
2022/06/29 07:46:02;;;;;;;5.50;4.93;;;;;;;20.83;100.00;96220.88;5034667;28;102586;-64
2022/06/29 07:48:30;;;;;;;6.20;5.70;;;;;;;21.16;100.00;96213.88;5030679;27;105169;-64
2022/06/29 07:50:57;;;;;;;6.33;5.73;;;;;;;21.04;100.00;96209.09;5029187;28;105436;-64
2022/06/29 07:53:24;;;;;;;5.23;4.80;;;;;;;21.17;100.00;96212.75;5031742;28;101862;-64
2022/06/29 07:55:51;;;;;;;6.27;5.73;;;;;;;21.04;100.00;96198.28;5031120;27;102669;-64
2022/06/29 07:58:18;;;;;;;6.57;5.53;;;;;;;21.09;100.00;96197.34;5030553;28;102752;-64
2022/06/29 08:00:46;;;;;;;6.40;5.20;;;;;;;21.52;100.00;96203.44;5031587;28;101858;-64
2022/06/29 08:03:13;;;;;;;5.00;4.60;;;;;;;21.72;100.00;96202.72;5030371;28;105442;-64
2022/06/29 08:05:42;;;;;;;5.77;5.27;;;;;;;21.91;100.00;96200.44;5030512;27;102555;-64
2022/06/29 08:08:09;;;;;;;8.13;5.30;;;;;;;21.71;100.00;96201.16;5035166;27;102196;-64
2022/06/29 08:10:37;;;;;;;6.37;5.53;;;;;;;21.57;100.00;96192.44;5029474;28;105536;-64
2022/06/29 08:13:04;;;;;;;5.90;5.40;;;;;;;21.57;100.00;96193.22;5031254;28;101958;-64
2022/06/29 08:15:31;;;;;;;5.10;4.60;;;;;;;21.82;100.00;96188.84;5031213;28;102399;-64
2022/06/29 08:17:59;;;;;;;5.77;5.27;;;;;;;22.03;100.00;96178.84;5030836;28;102804;-64
2022/06/29 08:20:28;;;;;;;5.10;4.63;;;;;;;22.25;100.00;96175.84;5031052;27;101808;-64
2022/06/29 08:22:57;;;;;;;6.40;5.80;;;;;;;22.22;100.00;96177.28;5031425;27;102317;-64
2022/06/29 08:25:24;;;;;;;5.63;5.13;;;;;;;22.12;100.00;96182.31;5030343;28;102589;-64
2022/06/29 08:27:53;;;;;;;6.10;5.53;;;;;;;22.46;100.00;96182.88;5030853;28;101815;-64
2022/06/29 08:30:21;;;;;;;6.33;5.73;;;;;;;22.74;100.00;96183.16;5032682;28;105750;-64
2022/06/29 08:32:49;;;;;;;6.47;5.87;;;;;;;22.76;100.00;96183.59;5031119;28;102096;-64
2022/06/29 08:35:18;;;;;;;6.43;5.77;;;;;;;22.74;100.00;96185.88;5029494;28;103783;-64
2022/06/29 08:37:46;;;;;;;6.50;5.90;;;;;;;22.79;100.00;96201.94;5029024;28;103806;-64
2022/06/29 08:40:18;;;;;;;6.43;5.80;;;;;;;22.73;100.00;96198.63;5030527;28;101826;-64
2022/06/29 08:42:46;;;;;;;5.57;5.07;;;;;;;22.72;100.00;96190.84;5029648;28;103670;-64
2022/06/29 08:45:17;;;;;;;5.10;4.67;;;;;;;22.95;100.00;96198.25;5028714;28;104244;-64
2022/06/29 08:47:44;;;;;;;6.07;5.13;;;;;;;23.06;100.00;96196.72;5031087;27;101791;-64
2022/06/29 08:50:13;;;;;;;4.83;4.37;;;;;;;23.05;100.00;96197.06;5028906;28;105123;-64
2022/06/29 08:52:43;;;;;;;5.30;4.80;;;;;;;23.03;100.00;96191.19;5033258;27;101729;-64
2022/06/29 08:55:10;;;;;;;5.33;4.83;;;;;;;22.97;100.00;96189.78;5029060;28;105431;-64
2022/06/29 08:57:40;;;;;;;4.77;4.37;;;;;;;23.09;100.00;96184.41;5028759;28;103760;-64
2022/06/29 09:00:10;;;;;;;5.23;4.60;;;;;;;23.10;100.00;96177.88;5030712;27;101859;-64
2022/06/29 09:02:37;;;;;;;5.60;4.53;;;;;;;22.40;100.00;96184.16;5028857;28;103736;-64
2022/06/29 09:05:06;;;;;;;6.03;4.10;;;;;;;22.83;100.00;96184.66;5029759;27;102638;-64
2022/06/29 09:07:34;;;;;;;5.43;5.03;;;;;;;22.71;100.00;96183.81;5028935;27;101971;-64
2022/06/29 09:10:03;;;;;;;5.87;5.30;;;;;;;22.68;100.00;96192.63;5030286;28;104447;-64
2022/06/29 09:12:31;;;;;;;4.67;4.27;;;;;;;22.59;100.00;96186.47;5033051;28;102920;-64
2022/06/29 09:15:01;;;;;;;6.00;4.50;;;;;;;22.48;100.00;96190.69;5028839;28;105453;-64
2022/06/29 09:17:31;;;;;;;5.17;4.60;;;;;;;22.66;100.00;96184.81;5029846;27;102578;-64
2022/06/29 09:19:58;;;;;;;5.13;4.37;;;;;;;22.65;100.00;96193.25;5030507;28;101754;-64
2022/06/29 09:22:26;;;;;;;5.23;4.80;;;;;;;22.54;100.00;96198.31;5030360;28;102814;-64
2022/06/29 09:24:53;;;;;;;6.07;5.13;;;;;;;22.23;100.00;96194.34;5028214;28;105514;-64
2022/06/29 09:27:20;;;;;;;5.83;5.43;;;;;;;21.93;100.00;96203.59;5029900;28;102159;-64
2022/06/29 09:29:47;;;;;;;8.60;5.60;;;;;;;22.28;100.00;96202.28;5030342;27;102459;-64
2022/06/29 09:32:18;;;;;;;5.23;4.73;;;;;;;22.78;100.00;96198.41;5028187;28;105055;-64
2022/06/29 09:34:48;;;;;;;4.80;4.40;;;;;;;22.95;100.00;96200.19;5032161;28;101874;-64
2022/06/29 09:37:16;;;;;;;6.43;4.90;;;;;;;23.40;100.00;96201.03;5029629;27;102832;-64
2022/06/29 09:39:45;;;;;;;5.53;5.03;;;;;;;23.70;100.00;96195.09;5029736;27;102096;-64
2022/06/29 09:42:14;;;;;;;5.20;4.70;;;;;;;24.06;100.00;96197.06;5029962;28;102440;-64
2022/06/29 09:44:42;;;;;;;4.57;4.10;;;;;;;24.36;100.00;96191.03;5028116;28;103172;-64
2022/06/29 09:47:12;;;;;;;7.30;5.20;;;;;;;24.10;100.00;96187.13;5029872;28;102265;-64
2022/06/29 09:49:41;;;;;;;4.80;4.40;;;;;;;24.32;100.00;96186.63;5029571;28;102349;-64
2022/06/29 09:52:23;;;;;;;4.90;4.50;;;;;;;24.54;100.00;96186.94;5027779;28;106282;-64
2022/06/29 09:54:54;;;;;;;5.03;4.60;;;;;;;24.61;100.00;96198.06;4970702;28;101968;-64
2022/06/29 09:57:25;;;;;;;6.03;5.20;;;;;;;24.45;100.00;96188.19;4973390;28;105607;-64
2022/06/29 10:02:42;;;;;;;4.77;4.20;;;;;;;24.16;100.00;96181.13;4970358;28;106214;-64
2022/06/29 10:05:13;;;;;;;7.23;5.10;;;;;;;24.42;100.00;96178.00;4986799;28;102638;-64
2022/06/29 10:07:43;;;;;;;5.10;4.70;;;;;;;24.10;100.00;96176.25;4971139;28;101927;-64
2022/06/29 10:10:11;;;;;;;5.80;4.70;;;;;;;24.02;100.00;96172.50;4970542;28;105108;-64
2022/06/29 10:15:58;;;;;;;5.10;4.70;;;;;;;23.65;100.00;96162.75;4970617;28;101980;-64
2022/06/29 10:18:40;;;;;;;5.80;4.67;;;;;;;23.90;100.00;96160.84;4970462;28;103433;-64
2022/06/29 10:21:16;;;;;;;4.87;4.40;;;;;;;24.09;100.00;96150.22;4975861;28;105964;-64
2022/06/29 10:23:47;;;;;;;4.57;4.27;;;;;;;24.29;100.00;96151.97;4973938;28;105185;-64
2022/06/29 10:26:41;;;;;;;5.13;4.77;;;;;;;24.11;100.00;96150.66;4989930;28;104615;-64
2022/06/29 10:29:31;;;;;;;5.93;4.90;;;;;;;24.24;100.00;96146.81;4988101;28;102048;-64
2022/06/29 10:32:23;;;;;;;5.27;4.73;;;;;;;24.30;100.00;96143.47;5009322;28;103785;-64
2022/06/29 10:35:08;;;;;;;5.00;4.50;;;;;;;24.45;100.00;96139.25;5064618;27;106024;-64
2022/06/29 10:37:49;;;;;;;5.70;4.17;;;;;;;24.24;100.00;96133.22;5032767;27;101718;-64
2022/06/29 10:40:24;;;;;;;5.57;5.10;;;;;;;24.25;100.00;96140.22;5032684;27;104034;-64
2022/06/29 10:43:09;;;;;;;6.70;4.77;;;;;;;24.20;100.00;96138.50;5030801;28;103859;-64
2022/06/29 10:45:42;;;;;;;5.77;5.17;;;;;;;24.72;100.00;96138.50;5036373;27;101739;-64
2022/06/29 10:48:17;;;;;;;5.17;4.60;;;;;;;24.92;100.00;96134.81;5032222;28;103205;-64
2022/06/29 10:50:46;;;;;;;5.90;5.23;;;;;;;24.54;100.00;96138.00;5030641;28;102092;-64
2022/06/29 10:53:17;;;;;;;3.97;3.40;;;;;;;25.59;100.00;96138.19;5031463;28;103656;-64
2022/06/29 10:55:46;;;;;;;4.70;4.30;;;;;;;25.68;100.00;96138.81;5030401;28;105338;-64
2022/06/29 10:58:13;;;;;;;4.10;3.60;;;;;;;25.70;100.00;96135.72;5031123;28;101720;-64
2022/06/29 11:00:42;;;;;;;4.70;4.20;;;;;;;25.52;100.00;96129.03;5032269;28;102372;-64
2022/06/29 11:03:12;;;;;;;6.87;3.97;;;;;;;25.93;100.00;96139.44;5031704;27;103060;-64
2022/06/29 11:12:01;;;;;;;4.90;3.80;;;;;;;26.11;100.00;96135.16;5035682;28;101765;-64
2022/06/29 11:14:03;;;;;;;4.10;3.80;;;;;;;26.19;100.00;96129.53;5032289;27;102838;-64
2022/06/29 11:16:33;;;;;;;4.33;3.93;;;;;;;26.39;100.00;96127.63;5031639;28;102660;-64
2022/06/29 11:19:01;;;;;;;3.80;3.50;;;;;;;26.86;100.00;96134.47;5032297;28;101752;-64
2022/06/29 11:21:32;;;;;;;3.93;3.30;;;;;;;27.08;100.00;96127.50;5032244;28;102392;-64
2022/06/29 11:24:05;;;;;;;4.30;3.67;;;;;;;27.10;100.00;96127.94;5031516;28;104652;-64
2022/06/29 11:26:34;;;;;;;5.63;4.10;;;;;;;26.84;100.00;96131.34;5030639;28;102302;-64
2022/06/29 11:29:02;;;;;;;3.77;3.47;;;;;;;26.80;100.00;96135.16;5035247;28;102460;-64
2022/06/29 11:31:30;;;;;;;4.97;4.23;;;;;;;26.52;100.00;96140.78;5030870;27;102426;-64
2022/06/29 11:33:57;;;;;;;4.30;3.90;;;;;;;26.27;100.00;96135.94;5031761;28;102376;-64
2022/06/29 11:36:28;;;;;;;4.83;3.93;;;;;;;26.11;100.00;96130.50;5031450;28;102609;-64